createdAt,value
2022-11-30T00:01:21.218Z,6.60
2022-11-30T00:03:48.382Z,6.60
2022-11-30T00:06:17.025Z,6.60
2022-11-30T00:08:43.958Z,6.60
2022-11-30T00:11:17.816Z,6.60
2022-11-30T00:13:45.422Z,6.60
2022-11-30T00:16:12.255Z,6.60
2022-11-30T00:18:39.555Z,6.60
2022-11-30T00:21:08.990Z,6.60
2022-11-30T00:23:37.733Z,6.70
2022-11-30T00:26:10.126Z,6.60
2022-11-30T00:28:37.821Z,6.70
2022-11-30T00:31:07.100Z,6.70
2022-11-30T00:33:36.305Z,6.70
2022-11-30T00:36:06.028Z,6.70
2022-11-30T00:38:33.655Z,6.70
2022-11-30T00:41:01.974Z,6.70
2022-11-30T00:43:29.227Z,6.70
2022-11-30T00:45:56.236Z,6.70
2022-11-30T00:48:23.244Z,6.70
2022-11-30T00:50:51.048Z,6.70
2022-11-30T00:53:18.787Z,6.70
2022-11-30T00:55:46.756Z,6.70
2022-11-30T00:58:14.441Z,6.70
2022-11-30T01:00:41.898Z,6.70
2022-11-30T01:03:08.952Z,6.70
2022-11-30T01:05:36.568Z,6.70
2022-11-30T01:08:05.833Z,6.70
2022-11-30T01:10:34.151Z,6.70
2022-11-30T01:13:01.275Z,6.70
2022-11-30T01:15:28.183Z,6.70
2022-11-30T01:17:55.163Z,6.70
2022-11-30T01:20:22.012Z,6.70
2022-11-30T01:22:48.830Z,6.70
2022-11-30T01:25:15.987Z,6.70
2022-11-30T01:27:42.925Z,6.60
2022-11-30T01:30:10.300Z,6.60
2022-11-30T01:32:37.109Z,6.60
2022-11-30T01:35:04.113Z,6.60
2022-11-30T01:37:31.052Z,6.60
2022-11-30T01:39:57.916Z,6.60
2022-11-30T01:42:24.778Z,6.60
2022-11-30T01:44:51.662Z,6.60
2022-11-30T01:47:24.835Z,6.60
2022-11-30T01:50:01.303Z,6.60
2022-11-30T01:52:47.001Z,6.50
2022-11-30T01:55:22.928Z,6.60
2022-11-30T01:57:56.649Z,6.60
2022-11-30T02:00:24.215Z,6.60
2022-11-30T02:03:17.736Z,6.60
2022-11-30T02:05:44.776Z,6.60
2022-11-30T02:08:11.846Z,6.50
2022-11-30T02:10:42.424Z,6.50
2022-11-30T02:13:23.972Z,6.50
2022-11-30T02:16:26.191Z,6.50
2022-11-30T02:19:14.473Z,6.50
2022-11-30T02:21:53.214Z,6.50
2022-11-30T02:24:58.807Z,6.40
2022-11-30T02:27:37.345Z,6.40
2022-11-30T02:30:13.823Z,6.40
2022-11-30T02:33:02.130Z,6.40
2022-11-30T02:35:32.594Z,6.40
2022-11-30T02:38:01.282Z,6.40
2022-11-30T02:40:28.410Z,6.40
2022-11-30T02:42:57.938Z,6.40
2022-11-30T02:45:44.504Z,6.40
2022-11-30T02:48:14.312Z,6.40
2022-11-30T02:50:59.426Z,6.40
2022-11-30T02:53:26.366Z,6.40
2022-11-30T02:55:54.688Z,6.30
2022-11-30T02:58:22.356Z,6.30
2022-11-30T03:00:49.978Z,6.40
2022-11-30T03:03:17.011Z,6.40
2022-11-30T03:05:43.820Z,6.40
2022-11-30T03:08:10.651Z,6.40
2022-11-30T03:10:37.462Z,6.40
2022-11-30T03:13:04.322Z,6.30
2022-11-30T03:15:31.436Z,6.30
2022-11-30T03:18:02.303Z,6.40
2022-11-30T03:20:29.133Z,6.30
2022-11-30T03:23:00.668Z,6.30
2022-11-30T03:25:28.185Z,6.30
2022-11-30T03:27:55.158Z,6.30
2022-11-30T03:30:22.056Z,6.30
2022-11-30T03:32:48.865Z,6.30
2022-11-30T03:35:15.715Z,6.30
2022-11-30T03:37:42.563Z,6.30
2022-11-30T03:40:09.799Z,6.40
2022-11-30T03:42:36.660Z,6.30
2022-11-30T03:45:04.237Z,6.30
2022-11-30T03:47:31.116Z,6.30
2022-11-30T03:49:57.873Z,6.30
2022-11-30T03:52:24.755Z,6.30
2022-11-30T03:54:51.529Z,6.30
2022-11-30T03:57:18.335Z,6.30
2022-11-30T03:59:45.107Z,6.30
2022-11-30T04:02:11.945Z,6.30
2022-11-30T04:04:38.777Z,6.30
2022-11-30T04:07:05.539Z,6.30
2022-11-30T04:09:32.311Z,6.30
2022-11-30T04:11:59.097Z,6.30
2022-11-30T04:14:25.892Z,6.30
2022-11-30T04:16:52.781Z,6.30
2022-11-30T04:19:19.583Z,6.30
2022-11-30T04:21:46.380Z,6.30
2022-11-30T04:24:13.211Z,6.30
2022-11-30T04:26:39.998Z,6.30
2022-11-30T04:29:06.856Z,6.30
2022-11-30T04:31:33.713Z,6.30
2022-11-30T04:34:00.824Z,6.30
2022-11-30T04:36:27.631Z,6.30
2022-11-30T04:38:54.527Z,6.30
2022-11-30T04:41:21.351Z,6.30
2022-11-30T04:43:48.198Z,6.30
2022-11-30T04:46:15.163Z,6.30
2022-11-30T04:48:41.986Z,6.30
2022-11-30T04:51:09.334Z,6.30
2022-11-30T04:53:37.995Z,6.30
2022-11-30T04:56:09.511Z,6.30
2022-11-30T04:58:36.821Z,6.30
2022-11-30T05:01:03.892Z,6.20
2022-11-30T05:03:30.726Z,6.20
2022-11-30T05:05:57.562Z,6.20
2022-11-30T05:08:24.510Z,6.20
2022-11-30T05:10:55.511Z,6.20
2022-11-30T05:13:23.902Z,6.10
2022-11-30T05:15:50.741Z,6.10
2022-11-30T05:18:17.753Z,6.10
2022-11-30T05:20:52.835Z,6.00
2022-11-30T05:23:20.928Z,6.00
2022-11-30T05:25:48.146Z,6.00
2022-11-30T05:28:15.514Z,6.00
2022-11-30T05:30:43.226Z,6.00
2022-11-30T05:33:10.272Z,6.00
2022-11-30T05:35:37.398Z,6.00
2022-11-30T05:38:04.530Z,5.90
2022-11-30T05:40:33.627Z,6.00
2022-11-30T05:43:02.020Z,5.90
2022-11-30T05:45:29.506Z,5.90
2022-11-30T05:47:56.353Z,5.90
2022-11-30T05:50:23.208Z,5.90
2022-11-30T05:52:51.972Z,5.90
2022-11-30T05:55:18.756Z,5.90
2022-11-30T05:57:45.516Z,5.90
2022-11-30T06:00:12.951Z,5.90
2022-11-30T06:02:39.963Z,5.90
2022-11-30T06:05:07.319Z,5.90
2022-11-30T06:07:34.195Z,5.90
2022-11-30T06:10:01.058Z,5.80
2022-11-30T06:12:27.856Z,5.90
2022-11-30T06:14:54.691Z,5.80
2022-11-30T06:17:21.524Z,5.80
2022-11-30T06:19:48.371Z,5.90
2022-11-30T06:22:15.419Z,5.90
2022-11-30T06:24:42.406Z,5.80
2022-11-30T06:27:09.205Z,5.90
2022-11-30T06:29:36.030Z,5.80
2022-11-30T06:32:02.898Z,5.80
2022-11-30T06:34:31.947Z,5.80
2022-11-30T06:36:58.805Z,5.90
2022-11-30T06:39:50.155Z,5.80
2022-11-30T06:42:12.601Z,5.90
2022-11-30T06:44:39.402Z,5.80
2022-11-30T06:47:06.186Z,5.80
2022-11-30T06:49:33.038Z,5.80
2022-11-30T06:51:59.798Z,5.80
2022-11-30T06:54:26.619Z,5.90
2022-11-30T06:56:53.497Z,5.80
2022-11-30T06:59:20.290Z,5.90
2022-11-30T07:01:47.122Z,5.80
2022-11-30T07:04:13.991Z,5.90
2022-11-30T07:06:41.134Z,5.80
2022-11-30T07:09:07.961Z,5.90
2022-11-30T07:11:34.891Z,5.80
2022-11-30T07:14:01.715Z,5.90
2022-11-30T07:16:28.954Z,5.90
2022-11-30T07:18:55.783Z,5.80
2022-11-30T07:21:22.588Z,5.80
2022-11-30T07:24:08.083Z,5.80
2022-11-30T07:26:34.989Z,5.80
2022-11-30T07:29:01.831Z,5.80
2022-11-30T07:31:36.013Z,5.80
2022-11-30T07:34:08.170Z,5.80
2022-11-30T07:36:36.004Z,5.80
2022-11-30T07:39:03.754Z,5.80
2022-11-30T07:41:31.369Z,5.90
2022-11-30T07:43:58.177Z,5.90
2022-11-30T07:46:25.100Z,5.90
2022-11-30T07:48:51.899Z,5.90
2022-11-30T07:51:23.262Z,5.90
2022-11-30T07:53:50.631Z,5.90
2022-11-30T07:56:19.362Z,5.90
2022-11-30T07:58:47.273Z,5.90
2022-11-30T08:01:17.817Z,5.90
2022-11-30T08:03:45.012Z,5.90
2022-11-30T08:06:14.486Z,5.90
2022-11-30T08:08:44.218Z,5.90
2022-11-30T08:11:14.087Z,5.90
2022-11-30T08:13:41.334Z,5.80
2022-11-30T08:16:17.031Z,5.90
2022-11-30T08:18:43.998Z,5.90
2022-11-30T08:21:12.765Z,5.90
2022-11-30T08:23:44.657Z,5.90
2022-11-30T08:26:20.306Z,5.90
2022-11-30T08:28:48.695Z,5.90
2022-11-30T08:31:19.082Z,5.90
2022-11-30T08:33:46.282Z,5.90
2022-11-30T08:36:18.520Z,5.90
2022-11-30T08:38:46.395Z,5.90
2022-11-30T08:41:15.495Z,5.90
2022-11-30T08:43:42.813Z,5.90
2022-11-30T08:46:35.161Z,5.90
2022-11-30T08:49:19.784Z,5.90
2022-11-30T08:52:15.958Z,5.90
2022-11-30T08:54:34.910Z,5.90
2022-11-30T08:57:01.906Z,5.90
2022-11-30T08:59:31.465Z,6.00
2022-11-30T09:01:58.284Z,6.00
2022-11-30T09:04:25.265Z,6.00
2022-11-30T09:06:52.049Z,6.00
2022-11-30T09:09:18.854Z,6.00
2022-11-30T09:11:45.660Z,6.00
2022-11-30T09:14:12.571Z,6.10
2022-11-30T09:16:39.480Z,6.10
2022-11-30T09:19:06.347Z,6.10
2022-11-30T09:21:33.436Z,6.10
2022-11-30T09:24:00.290Z,6.10
2022-11-30T09:26:27.247Z,6.10
2022-11-30T09:28:54.649Z,6.10
2022-11-30T09:31:24.202Z,6.10
2022-11-30T09:33:51.900Z,6.10
2022-11-30T09:36:21.781Z,6.10
2022-11-30T09:38:49.501Z,6.10
2022-11-30T09:41:34.081Z,6.00
2022-11-30T09:44:19.438Z,6.10
2022-11-30T09:47:04.333Z,6.10
2022-11-30T09:49:35.823Z,6.10
2022-11-30T09:52:05.902Z,6.10
2022-11-30T09:54:38.728Z,6.10
2022-11-30T09:57:29.355Z,6.10
2022-11-30T09:59:59.310Z,6.20
2022-11-30T10:02:38.467Z,6.20
2022-11-30T10:05:14.603Z,6.30
2022-11-30T10:07:44.412Z,6.30
2022-11-30T10:10:34.045Z,6.30
2022-11-30T10:13:12.657Z,6.30
2022-11-30T10:16:13.274Z,6.30
2022-11-30T10:18:49.196Z,6.30
2022-11-30T10:21:34.921Z,6.30
2022-11-30T10:24:18.635Z,6.30
2022-11-30T10:26:54.875Z,6.30
2022-11-30T10:29:31.812Z,6.30
2022-11-30T10:32:00.987Z,6.30
2022-11-30T10:34:36.936Z,6.30
2022-11-30T10:37:23.183Z,6.40
2022-11-30T10:40:04.843Z,6.40
2022-11-30T10:42:44.688Z,6.40
2022-11-30T10:45:13.181Z,6.40
2022-11-30T10:48:13.897Z,6.40
2022-11-30T10:50:41.416Z,6.50
2022-11-30T10:53:11.689Z,6.50
2022-11-30T10:55:45.308Z,6.60
2022-11-30T10:58:36.563Z,6.60
2022-11-30T11:01:28.411Z,6.60
2022-11-30T11:04:16.836Z,6.60
2022-11-30T11:06:46.488Z,6.60
2022-11-30T11:09:47.436Z,6.60
2022-11-30T11:12:27.709Z,6.60
2022-11-30T11:15:18.221Z,6.60
2022-11-30T11:17:45.584Z,6.60
2022-11-30T11:20:35.874Z,6.50
2022-11-30T11:23:04.673Z,6.50
2022-11-30T11:25:37.337Z,6.40
2022-11-30T11:28:14.114Z,6.40
2022-11-30T11:30:41.447Z,6.40
2022-11-30T11:33:11.513Z,6.40
2022-11-30T11:35:47.389Z,6.40
2022-11-30T11:38:22.395Z,6.40
2022-11-30T11:41:04.927Z,6.40
2022-11-30T11:43:34.495Z,6.50
2022-11-30T11:46:11.257Z,6.50
2022-11-30T11:48:56.265Z,6.60
2022-11-30T11:51:37.442Z,6.60
2022-11-30T11:54:22.300Z,6.60
2022-11-30T11:56:49.995Z,6.60
2022-11-30T11:59:33.191Z,6.60
2022-11-30T12:02:33.701Z,6.60
2022-11-30T12:05:17.631Z,6.50
2022-11-30T12:08:08.121Z,6.50
2022-11-30T12:10:57.250Z,6.50
2022-11-30T12:13:34.133Z,6.40
2022-11-30T12:16:16.123Z,6.40
2022-11-30T12:19:18.297Z,6.40
2022-11-30T12:22:14.538Z,6.40
2022-11-30T12:24:51.967Z,6.40
2022-11-30T12:27:39.822Z,6.40
2022-11-30T12:30:23.178Z,6.40
2022-11-30T12:33:17.830Z,6.40
2022-11-30T12:36:01.361Z,6.40
2022-11-30T12:39:09.166Z,6.40
2022-11-30T12:41:50.895Z,6.40
2022-11-30T12:44:47.059Z,6.40
2022-11-30T12:47:26.724Z,6.40
2022-11-30T12:50:08.737Z,6.50
2022-11-30T12:52:58.689Z,6.50
2022-11-30T12:55:46.128Z,6.50
2022-11-30T12:58:30.783Z,6.50
2022-11-30T13:01:12.347Z,6.50
2022-11-30T13:03:45.486Z,6.60
2022-11-30T13:06:21.247Z,6.60
2022-11-30T13:09:06.366Z,6.60
2022-11-30T13:11:41.745Z,6.60
2022-11-30T13:14:21.837Z,6.60
2022-11-30T13:16:57.978Z,6.60
2022-11-30T13:19:58.494Z,6.60
2022-11-30T13:22:53.310Z,6.60
2022-11-30T13:28:35.065Z,6.60
2022-11-30T13:31:23.065Z,6.60
2022-11-30T13:33:52.936Z,6.60
2022-11-30T13:36:28.789Z,6.50
2022-11-30T13:39:14.195Z,6.50
2022-11-30T13:41:47.516Z,6.50
2022-11-30T13:44:35.274Z,6.50
2022-11-30T13:47:16.516Z,6.50
2022-11-30T13:49:43.943Z,6.50
2022-11-30T13:52:24.153Z,6.50
2022-11-30T13:54:57.404Z,6.50
2022-11-30T13:57:30.458Z,6.40
2022-11-30T13:59:59.746Z,6.40
2022-11-30T14:02:32.808Z,6.40
2022-11-30T14:05:17.702Z,6.40
2022-11-30T14:08:10.066Z,6.40
2022-11-30T14:10:39.134Z,6.40
2022-11-30T14:13:31.882Z,6.30
2022-11-30T14:16:02.916Z,6.30
2022-11-30T14:18:40.463Z,6.30
2022-11-30T14:21:28.610Z,6.30
2022-11-30T14:23:57.950Z,6.30
2022-11-30T14:26:38.108Z,6.30
2022-11-30T14:29:07.967Z,6.30
2022-11-30T14:31:40.645Z,6.30
2022-11-30T14:34:27.108Z,6.30
2022-11-30T14:37:06.077Z,6.20
2022-11-30T14:39:34.818Z,6.20
2022-11-30T14:42:03.385Z,6.20
2022-11-30T14:44:35.958Z,6.20
2022-11-30T14:47:24.699Z,6.20
2022-11-30T14:49:54.880Z,6.20
2022-11-30T14:52:37.772Z,6.10
2022-11-30T14:55:18.946Z,6.20
2022-11-30T14:57:55.950Z,6.10
2022-11-30T15:00:23.180Z,6.10
2022-11-30T15:02:50.180Z,6.10
2022-11-30T15:05:22.452Z,6.10
2022-11-30T15:07:50.327Z,6.00
2022-11-30T15:10:37.591Z,6.00
2022-11-30T15:13:05.091Z,6.10
2022-11-30T15:15:32.817Z,6.00
2022-11-30T15:18:18.994Z,6.00
2022-11-30T15:20:56.933Z,6.00
2022-11-30T15:23:23.822Z,6.00
2022-11-30T15:25:55.576Z,6.00
2022-11-30T15:28:32.106Z,6.00
2022-11-30T15:31:03.184Z,6.00
2022-11-30T15:33:49.437Z,5.90
2022-11-30T15:36:31.830Z,5.90
2022-11-30T15:39:06.421Z,5.90
2022-11-30T15:41:35.256Z,5.90
2022-11-30T15:44:02.487Z,5.90
2022-11-30T15:46:44.478Z,5.90
2022-11-30T15:49:13.195Z,5.90
2022-11-30T15:51:42.191Z,5.90
2022-11-30T15:54:09.168Z,5.80
2022-11-30T15:56:36.421Z,5.80
2022-11-30T15:59:04.991Z,5.80
2022-11-30T16:02:01.308Z,5.80
2022-11-30T16:04:56.276Z,5.80
2022-11-30T16:07:29.748Z,5.80
2022-11-30T16:10:24.711Z,5.80
2022-11-30T16:12:53.578Z,5.80
2022-11-30T16:15:25.120Z,5.80
2022-11-30T16:17:54.223Z,5.80
2022-11-30T16:20:21.247Z,5.80
2022-11-30T16:22:49.189Z,5.80
2022-11-30T16:25:22.738Z,5.80
2022-11-30T16:27:50.392Z,5.80
2022-11-30T16:30:20.522Z,5.80
2022-11-30T16:32:47.558Z,5.80
2022-11-30T16:35:24.953Z,5.80
2022-11-30T16:37:52.253Z,5.80
2022-11-30T16:40:19.603Z,5.80
2022-11-30T16:42:49.064Z,5.80
2022-11-30T16:45:22.522Z,5.90
2022-11-30T16:47:50.329Z,5.80
2022-11-30T16:50:18.119Z,5.90
2022-11-30T16:52:45.886Z,5.80
2022-11-30T16:55:15.439Z,5.80
2022-11-30T16:57:42.609Z,5.80
2022-11-30T17:00:11.049Z,5.80
2022-11-30T17:02:44.909Z,5.80
2022-11-30T17:05:14.743Z,5.80
2022-11-30T17:07:42.062Z,5.80
2022-11-30T17:10:09.411Z,5.80
2022-11-30T17:12:36.510Z,5.80
2022-11-30T17:15:04.903Z,5.80
2022-11-30T17:17:31.778Z,5.80
2022-11-30T17:19:58.608Z,5.80
2022-11-30T17:22:25.462Z,5.80
2022-11-30T17:24:52.254Z,5.80
2022-11-30T17:27:19.072Z,5.80
2022-11-30T17:29:45.983Z,5.80
2022-11-30T17:32:12.819Z,5.80
2022-11-30T17:34:39.914Z,5.80
2022-11-30T17:37:06.871Z,5.80
2022-11-30T17:39:33.833Z,5.80
2022-11-30T17:42:00.988Z,5.80
2022-11-30T17:44:27.767Z,5.80
2022-11-30T17:46:54.839Z,5.80
2022-11-30T17:49:21.664Z,5.80
2022-11-30T17:51:48.664Z,5.80
2022-11-30T17:54:15.776Z,5.80
2022-11-30T17:56:43.609Z,5.80
2022-11-30T17:59:10.531Z,5.80
2022-11-30T18:01:38.115Z,5.70
2022-11-30T18:04:05.141Z,5.70
2022-11-30T18:06:32.049Z,5.80
2022-11-30T18:08:59.168Z,5.80
2022-11-30T18:11:26.827Z,5.80
2022-11-30T18:13:55.423Z,5.70
2022-11-30T18:16:28.046Z,5.70
2022-11-30T18:18:57.468Z,5.80
2022-11-30T18:21:27.037Z,5.80
2022-11-30T18:23:53.882Z,5.80
2022-11-30T18:26:23.058Z,5.80
2022-11-30T18:28:54.655Z,5.80
2022-11-30T18:31:22.061Z,5.80
2022-11-30T18:33:54.910Z,5.80
2022-11-30T18:36:22.012Z,5.80
2022-11-30T18:38:48.847Z,5.80
2022-11-30T18:41:15.806Z,5.70
2022-11-30T18:43:42.690Z,5.80
2022-11-30T18:46:12.101Z,5.80
2022-11-30T18:48:40.301Z,5.70
2022-11-30T18:51:22.799Z,5.70
2022-11-30T18:53:50.127Z,5.80
2022-11-30T18:56:19.766Z,5.70
2022-11-30T18:58:47.642Z,5.70
2022-11-30T19:01:19.982Z,5.70
2022-11-30T19:03:59.773Z,5.70
2022-11-30T19:06:32.588Z,5.70
2022-11-30T19:09:01.958Z,5.70
2022-11-30T19:11:29.040Z,5.80
2022-11-30T19:13:57.974Z,5.70
2022-11-30T19:16:25.858Z,5.70
2022-11-30T19:18:53.810Z,5.70
2022-11-30T19:21:22.692Z,5.70
2022-11-30T19:23:50.332Z,5.70
2022-11-30T19:26:17.407Z,5.70
2022-11-30T19:28:44.961Z,5.70
2022-11-30T19:31:19.614Z,5.70
2022-11-30T19:33:51.693Z,5.70
2022-11-30T19:36:21.850Z,5.70
2022-11-30T19:38:49.772Z,5.70
2022-11-30T19:41:17.097Z,5.70
2022-11-30T19:43:47.940Z,5.70
2022-11-30T19:46:17.512Z,5.70
2022-11-30T19:48:45.133Z,5.70
2022-11-30T19:51:18.597Z,5.70
2022-11-30T19:53:45.975Z,5.70
2022-11-30T19:56:17.657Z,5.70
2022-11-30T19:58:45.998Z,5.70
2022-11-30T20:01:23.741Z,5.70
2022-11-30T20:03:56.108Z,5.70
2022-11-30T20:06:28.928Z,5.70
2022-11-30T20:08:56.095Z,5.70
2022-11-30T20:11:23.909Z,5.70
2022-11-30T20:13:53.477Z,5.70
2022-11-30T23:20:29.241Z,5.60
2022-11-30T23:22:56.082Z,5.60
2022-11-30T23:25:23.424Z,5.60
2022-11-30T23:27:50.464Z,5.60
2022-11-30T23:30:17.319Z,5.60
2022-11-30T23:32:44.168Z,5.60
2022-11-30T23:35:11.027Z,5.60
2022-11-30T23:37:37.810Z,5.50
2022-11-30T23:40:05.267Z,5.60
2022-11-30T23:42:32.051Z,5.50
2022-11-30T23:45:01.043Z,5.50
2022-11-30T23:47:27.987Z,5.50
2022-11-30T23:49:55.027Z,5.50
2022-11-30T23:52:21.866Z,5.50
2022-11-30T23:54:48.668Z,5.50
2022-11-30T23:57:15.471Z,5.50
2022-11-30T23:59:42.453Z,5.50
